createdAt,value
2018-07-25T00:01:53.795Z,84.40
2018-07-25T00:04:22.263Z,84.60
2018-07-25T00:06:50.643Z,84.70
2018-07-25T00:09:19.067Z,84.70
2018-07-25T00:11:47.503Z,84.80
2018-07-25T00:14:15.939Z,84.80
2018-07-25T00:16:44.373Z,85.10
2018-07-25T00:19:13.049Z,85.20
2018-07-25T00:21:41.452Z,85.20
2018-07-25T00:24:09.921Z,85.30
2018-07-25T00:26:38.346Z,85.30
2018-07-25T00:29:06.889Z,85.30
2018-07-25T00:32:37.977Z,85.30
2018-07-25T00:35:06.432Z,85.10
2018-07-25T00:37:34.867Z,85.10
2018-07-25T00:40:03.434Z,84.90
2018-07-25T00:42:31.887Z,85.10
2018-07-25T00:45:00.349Z,85.20
2018-07-25T00:47:28.766Z,85.10
2018-07-25T00:49:57.217Z,85.10
2018-07-25T00:52:25.648Z,85.10
2018-07-25T00:57:22.146Z,85.40
2018-07-25T00:59:50.565Z,85.40
2018-07-25T01:02:18.994Z,85.50
2018-07-25T01:04:47.434Z,85.50
2018-07-25T01:07:15.825Z,85.50
2018-07-25T01:09:44.319Z,85.40
2018-07-25T01:12:12.757Z,85.30
2018-07-25T01:14:41.172Z,85.20
2018-07-25T01:17:09.556Z,85.20
2018-07-25T01:19:38.032Z,85.20
2018-07-25T01:22:06.464Z,85.30
2018-07-25T01:24:34.906Z,85.30
2018-07-25T01:27:03.368Z,85.80
2018-07-25T01:29:31.780Z,85.90
2018-07-25T01:32:00.173Z,85.90
2018-07-25T01:34:28.643Z,86.00
2018-07-25T01:36:57.056Z,86.10
2018-07-25T01:39:25.474Z,86.10
2018-07-25T01:41:53.913Z,86.20
2018-07-25T01:44:22.852Z,86.50
2018-07-25T01:46:51.291Z,86.60
2018-07-25T01:51:47.849Z,86.60
2018-07-25T01:54:16.273Z,86.20
2018-07-25T01:56:44.688Z,86.20
2018-07-25T01:59:13.092Z,86.50
2018-07-25T02:01:41.752Z,86.50
2018-07-25T02:04:10.364Z,86.60
2018-07-25T02:06:38.771Z,86.60
2018-07-25T02:09:09.625Z,86.60
2018-07-25T02:11:38.155Z,86.70
2018-07-25T02:14:06.651Z,86.80
2018-07-25T02:16:35.045Z,87.00
2018-07-25T02:19:03.498Z,87.00
2018-07-25T02:21:31.902Z,86.90
2018-07-25T02:24:00.294Z,86.80
2018-07-25T02:26:28.779Z,86.80
2018-07-25T02:28:57.192Z,86.80
2018-07-25T02:31:25.753Z,86.90
2018-07-25T02:33:59.477Z,86.90
2018-07-25T02:36:27.912Z,86.80
2018-07-25T02:38:56.502Z,86.90
2018-07-25T02:41:24.960Z,87.00
2018-07-25T02:43:53.463Z,87.10
2018-07-25T02:46:21.907Z,87.10
2018-07-25T02:48:50.294Z,87.00
2018-07-25T02:51:18.708Z,87.00
2018-07-25T02:53:47.138Z,86.70
2018-07-25T02:56:15.577Z,86.70
2018-07-25T02:58:44.009Z,86.70
2018-07-25T03:01:12.425Z,86.90
2018-07-25T03:03:40.820Z,87.10
2018-07-25T03:06:09.233Z,87.20
2018-07-25T03:13:33.943Z,87.30
2018-07-25T03:16:07.125Z,87.50
2018-07-25T03:18:35.580Z,87.30
2018-07-25T03:21:04.090Z,87.60
2018-07-25T03:23:33.713Z,87.60
2018-07-25T03:26:02.202Z,87.50
2018-07-25T03:30:59.474Z,87.30
2018-07-25T03:33:28.034Z,87.30
2018-07-25T03:35:57.663Z,87.10
2018-07-25T03:38:26.834Z,87.10
2018-07-25T03:43:23.433Z,87.20
2018-07-25T03:45:51.899Z,87.30
2018-07-25T03:48:20.314Z,87.30
2018-07-25T03:50:48.752Z,87.40
2018-07-25T03:53:17.173Z,87.10
2018-07-25T03:55:45.606Z,87.10
2018-07-25T03:58:14.092Z,87.10
2018-07-25T04:00:42.500Z,87.10
2018-07-25T04:03:10.917Z,87.30
2018-07-25T04:05:39.379Z,87.50
2018-07-25T04:08:07.836Z,87.50
2018-07-25T04:10:36.324Z,87.60
2018-07-25T04:13:04.872Z,87.60
2018-07-25T04:15:33.330Z,87.60
2018-07-25T04:20:29.887Z,87.50
2018-07-25T04:22:58.315Z,87.50
2018-07-25T04:25:26.717Z,87.50
2018-07-25T04:27:55.128Z,87.50
2018-07-25T04:30:23.528Z,87.40
2018-07-25T04:32:51.965Z,87.20
2018-07-25T04:35:20.356Z,87.00
2018-07-25T04:37:48.760Z,86.90
2018-07-25T04:40:17.191Z,86.90
2018-07-25T04:42:45.626Z,86.60
2018-07-25T04:45:14.052Z,86.70
2018-07-25T04:47:42.489Z,86.70
2018-07-25T04:50:10.959Z,86.50
2018-07-25T04:52:39.428Z,86.50
2018-07-25T04:57:36.015Z,85.90
2018-07-25T05:00:04.948Z,85.70
2018-07-25T05:05:01.611Z,85.60
2018-07-25T05:07:30.040Z,85.60
2018-07-25T05:09:58.560Z,85.20
2018-07-25T05:12:26.969Z,84.80
2018-07-25T05:14:55.442Z,84.80
2018-07-25T05:19:52.023Z,84.50
2018-07-25T05:22:20.457Z,84.30
2018-07-25T05:32:13.332Z,83.30
2018-07-25T05:34:41.749Z,82.90
2018-07-25T05:37:10.270Z,82.90
2018-07-25T05:39:38.690Z,82.50
2018-07-25T05:42:07.181Z,82.50
2018-07-25T05:44:35.597Z,82.50
2018-07-25T05:47:04.160Z,81.70
2018-07-25T05:49:32.684Z,81.70
2018-07-25T05:52:01.059Z,81.40
2018-07-25T05:54:29.529Z,81.10
2018-07-25T05:56:57.974Z,81.10
2018-07-25T05:59:26.407Z,80.60
2018-07-25T06:01:54.911Z,80.60
2018-07-25T06:04:23.335Z,80.30
2018-07-25T06:06:51.802Z,79.90
2018-07-25T06:09:20.208Z,80.10
2018-07-25T06:14:16.821Z,78.90
2018-07-25T06:16:45.168Z,79.20
2018-07-25T06:19:13.685Z,77.50
2018-07-25T06:21:42.089Z,77.00
2018-07-25T06:24:10.640Z,76.30
2018-07-25T06:26:39.045Z,75.50
2018-07-25T06:29:07.458Z,73.20
2018-07-25T06:31:35.853Z,71.80
2018-07-25T06:34:04.338Z,69.60
2018-07-25T06:36:32.756Z,70.50
2018-07-25T06:39:01.198Z,67.80
2018-07-25T06:41:29.641Z,66.00
2018-07-25T06:43:58.255Z,65.80
2018-07-25T06:46:26.648Z,63.90
2018-07-25T06:48:55.061Z,63.20
2018-07-25T06:51:23.527Z,62.00
2018-07-25T06:53:51.954Z,60.50
2018-07-25T06:56:20.344Z,59.20
2018-07-25T06:58:48.802Z,58.50
2018-07-25T07:01:17.609Z,57.20
2018-07-25T07:03:46.107Z,58.20
2018-07-25T07:06:14.552Z,59.60
2018-07-25T07:08:43.018Z,58.70
2018-07-25T07:11:11.419Z,58.40
2018-07-25T07:13:39.879Z,59.40
2018-07-25T07:16:08.289Z,58.70
2018-07-25T07:18:36.786Z,58.50
2018-07-25T07:21:05.234Z,57.50
2018-07-25T07:23:33.729Z,56.70
2018-07-25T07:26:02.191Z,56.00
2018-07-25T07:28:30.619Z,54.70
2018-07-25T07:30:59.163Z,54.20
2018-07-25T07:33:27.597Z,53.30
2018-07-25T07:35:55.992Z,52.90
2018-07-25T07:38:24.444Z,51.80
2018-07-25T07:40:52.860Z,52.30
2018-07-25T07:43:21.333Z,52.90
2018-07-25T07:45:49.736Z,50.90
2018-07-25T07:48:18.279Z,52.40
2018-07-25T07:50:46.704Z,52.60
2018-07-25T07:53:15.166Z,50.90
2018-07-25T07:55:43.599Z,50.90
2018-07-25T07:58:12.033Z,49.60
2018-07-25T08:00:40.464Z,49.50
2018-07-25T08:03:08.872Z,49.30
2018-07-25T08:05:37.296Z,49.30
2018-07-25T08:08:05.741Z,52.10
2018-07-25T08:10:34.240Z,49.70
2018-07-25T08:13:02.682Z,50.40
2018-07-25T08:15:31.163Z,49.90
2018-07-25T08:17:59.662Z,49.20
2018-07-25T08:20:28.079Z,47.90
2018-07-25T08:22:56.553Z,48.90
2018-07-25T08:25:24.972Z,49.00
2018-07-25T08:27:53.389Z,49.00
2018-07-25T08:30:21.850Z,51.30
2018-07-25T08:32:50.244Z,49.90
2018-07-25T08:35:18.704Z,49.70
2018-07-25T08:37:47.113Z,51.50
2018-07-25T08:40:15.589Z,50.00
2018-07-25T08:42:44.049Z,49.90
2018-07-25T08:45:12.484Z,49.80
2018-07-25T08:47:40.992Z,49.00
2018-07-25T08:50:10.066Z,48.30
2018-07-25T08:52:38.940Z,48.20
2018-07-25T08:55:07.326Z,48.00
2018-07-25T08:57:35.718Z,48.70
2018-07-25T09:00:05.045Z,48.10
2018-07-25T09:02:33.472Z,48.40
2018-07-25T09:05:01.904Z,48.30
2018-07-25T09:07:30.365Z,48.00
2018-07-25T09:09:58.823Z,48.10
2018-07-25T09:12:27.348Z,48.50
2018-07-25T09:14:55.773Z,48.30
2018-07-25T09:17:24.196Z,47.00
2018-07-25T09:19:52.680Z,48.10
2018-07-25T09:22:21.165Z,49.50
2018-07-25T09:24:49.584Z,51.40
2018-07-25T09:27:18.049Z,52.40
2018-07-25T09:29:46.466Z,52.60
2018-07-25T09:32:14.868Z,50.90
2018-07-25T09:34:43.373Z,49.80
2018-07-25T09:37:11.781Z,50.00
2018-07-25T09:39:40.279Z,47.90
2018-07-25T09:42:08.903Z,46.60
2018-07-25T09:44:37.409Z,47.40
2018-07-25T09:47:05.915Z,47.20
2018-07-25T09:52:02.437Z,48.00
2018-07-25T09:56:59.014Z,47.40
2018-07-25T09:59:27.457Z,48.30
2018-07-25T10:01:55.919Z,48.50
2018-07-25T10:04:24.324Z,51.60
2018-07-25T10:06:52.836Z,51.90
2018-07-25T10:09:21.252Z,50.70
2018-07-25T10:11:49.697Z,50.10
2018-07-25T10:14:18.109Z,49.10
2018-07-25T10:16:46.524Z,49.20
2018-07-25T10:19:14.944Z,48.10
2018-07-25T10:21:43.414Z,50.10
2018-07-25T10:24:11.844Z,51.20
2018-07-25T10:29:08.413Z,52.90
2018-07-25T10:34:05.076Z,51.20
2018-07-25T10:36:33.529Z,50.60
2018-07-25T10:39:02.057Z,50.90
2018-07-25T10:41:30.515Z,51.00
2018-07-25T10:43:58.920Z,50.70
2018-07-25T10:46:27.349Z,52.20
2018-07-25T10:51:23.910Z,55.10
2018-07-25T10:53:52.383Z,54.40
2018-07-25T10:56:20.813Z,53.40
2018-07-25T10:58:49.283Z,52.50
2018-07-25T11:01:17.748Z,51.70
2018-07-25T11:03:46.179Z,53.00
2018-07-25T11:08:42.804Z,53.80
2018-07-25T11:11:11.267Z,54.80
2018-07-25T11:13:39.732Z,56.70
2018-07-25T11:16:08.181Z,55.90
2018-07-25T11:18:36.612Z,57.00
2018-07-25T11:21:05.088Z,57.70
2018-07-25T11:23:33.568Z,57.50
2018-07-25T11:26:02.049Z,57.60
2018-07-25T11:28:30.523Z,58.50
2018-07-25T11:30:58.968Z,59.10
2018-07-25T11:33:27.404Z,59.60
2018-07-25T11:35:55.908Z,59.40
2018-07-25T11:38:24.353Z,59.80
2018-07-25T11:40:52.815Z,59.60
2018-07-25T11:43:21.288Z,59.00
2018-07-25T11:45:49.681Z,59.20
2018-07-25T11:48:18.140Z,58.60
2018-07-25T11:53:14.729Z,58.30
2018-07-25T11:55:43.184Z,58.90
2018-07-25T12:00:39.669Z,58.60
2018-07-25T12:03:08.132Z,59.30
2018-07-25T12:05:36.575Z,60.50
2018-07-25T12:08:05.368Z,60.60
2018-07-25T12:10:33.831Z,60.20
2018-07-25T12:13:02.424Z,60.20
2018-07-25T12:15:30.804Z,59.80
2018-07-25T12:20:27.404Z,60.00
2018-07-25T12:22:55.896Z,60.00
2018-07-25T12:25:24.395Z,60.00
2018-07-25T12:27:53.479Z,60.50
2018-07-25T12:30:22.003Z,59.40
2018-07-25T12:32:50.459Z,60.10
2018-07-25T12:35:18.897Z,60.20
2018-07-25T12:37:47.487Z,60.90
2018-07-25T12:40:15.984Z,60.60
2018-07-25T12:42:45.101Z,59.80
2018-07-25T12:45:14.004Z,60.00
2018-07-25T12:47:42.441Z,59.90
2018-07-25T12:50:10.902Z,59.20
2018-07-25T12:52:39.357Z,59.00
2018-07-25T12:55:07.784Z,60.30
2018-07-25T12:57:36.294Z,60.50
2018-07-25T13:00:06.460Z,60.30
2018-07-25T13:02:34.939Z,59.90
2018-07-25T13:05:03.424Z,59.40
2018-07-25T13:07:32.048Z,59.60
2018-07-25T13:10:00.464Z,59.30
2018-07-25T13:12:28.905Z,59.20
2018-07-25T13:14:57.340Z,60.50
2018-07-25T13:17:25.806Z,60.00
2018-07-25T13:19:54.253Z,59.30
2018-07-25T13:22:22.735Z,59.40
2018-07-25T13:24:51.181Z,58.60
2018-07-25T13:27:19.655Z,59.50
2018-07-25T13:29:48.113Z,60.10
2018-07-25T13:32:16.513Z,60.10
2018-07-25T13:34:45.133Z,60.00
2018-07-25T13:37:13.553Z,60.20
2018-07-25T13:39:42.021Z,60.20
2018-07-25T13:42:10.520Z,59.80
2018-07-25T13:44:38.995Z,58.60
2018-07-25T13:47:07.506Z,58.50
2018-07-25T13:49:35.980Z,58.20
2018-07-25T13:52:04.486Z,58.30
2018-07-25T13:54:32.943Z,58.20
2018-07-25T13:59:29.527Z,59.40
2018-07-25T14:01:57.936Z,59.00
2018-07-25T14:04:26.384Z,58.90
2018-07-25T14:06:54.849Z,59.50
2018-07-25T14:09:23.328Z,59.90
2018-07-25T14:11:51.864Z,59.80
2018-07-25T14:14:20.320Z,58.70
2018-07-25T14:16:48.799Z,59.00
2018-07-25T14:21:45.415Z,58.70
2018-07-25T14:24:13.850Z,58.60
2018-07-25T14:29:10.499Z,59.00
2018-07-25T14:31:38.922Z,59.00
2018-07-25T14:34:07.384Z,59.40
2018-07-25T14:36:35.814Z,59.60
2018-07-25T14:39:06.878Z,58.60
2018-07-25T14:41:35.355Z,57.60
2018-07-25T14:44:03.917Z,57.90
2018-07-25T14:49:00.478Z,57.80
2018-07-25T14:51:28.970Z,56.90
2018-07-25T14:53:57.859Z,58.10
2018-07-25T14:56:26.305Z,57.80
2018-07-25T14:58:54.748Z,57.60
2018-07-25T15:01:23.262Z,58.20
2018-07-25T15:03:51.648Z,58.40
2018-07-25T15:06:20.066Z,58.40
2018-07-25T15:08:48.500Z,58.30
2018-07-25T15:11:17.053Z,57.80
2018-07-25T15:13:45.495Z,58.50
2018-07-25T15:16:14.102Z,58.90
2018-07-25T15:21:10.933Z,59.60
2018-07-25T15:24:02.965Z,62.10
2018-07-25T15:26:31.412Z,63.90
2018-07-25T15:29:00.632Z,64.50
2018-07-25T15:31:29.085Z,65.20
2018-07-25T15:33:57.746Z,65.70
2018-07-25T15:36:51.680Z,66.10
2018-07-25T15:39:21.194Z,66.60
2018-07-25T15:41:50.417Z,66.30
2018-07-25T15:44:20.018Z,66.00
2018-07-25T15:46:48.473Z,65.80
2018-07-25T15:49:16.924Z,65.40
2018-07-25T15:51:45.412Z,65.90
2018-07-25T15:54:13.881Z,66.50
2018-07-25T15:56:42.473Z,66.20
2018-07-25T15:59:10.942Z,66.80
2018-07-25T16:01:39.420Z,67.20
2018-07-25T16:04:08.353Z,67.10
2018-07-25T16:06:36.858Z,67.20
2018-07-25T16:09:08.049Z,67.40
2018-07-25T16:11:36.744Z,68.10
2018-07-25T16:14:05.475Z,68.50
2018-07-25T16:16:33.956Z,68.70
2018-07-25T16:19:02.389Z,68.50
2018-07-25T16:21:30.836Z,68.70
2018-07-25T16:23:59.469Z,68.90
2018-07-25T16:26:27.933Z,68.80
2018-07-25T16:28:56.406Z,68.50
2018-07-25T16:31:24.874Z,68.50
2018-07-25T16:36:21.493Z,68.50
2018-07-25T16:38:49.905Z,69.60
2018-07-25T16:41:18.396Z,69.80
2018-07-25T16:43:46.877Z,69.40
2018-07-25T16:46:15.456Z,69.80
2018-07-25T16:48:43.888Z,70.00
2018-07-25T16:53:40.499Z,70.40
2018-07-25T16:58:37.324Z,71.60
2018-07-25T17:01:05.876Z,72.10
2018-07-25T17:03:34.280Z,72.00
2018-07-25T17:06:02.750Z,72.80
2018-07-25T17:08:31.199Z,73.20
2018-07-25T17:10:59.699Z,73.40
2018-07-25T17:15:56.323Z,73.40
2018-07-25T17:18:24.762Z,73.70
2018-07-25T17:20:53.553Z,74.00
2018-07-25T17:25:50.302Z,74.00
2018-07-25T17:28:18.748Z,74.20
2018-07-25T17:30:47.374Z,74.20
2018-07-25T17:33:16.779Z,74.00
2018-07-25T17:35:45.232Z,73.10
2018-07-25T17:38:13.951Z,73.20
2018-07-25T17:40:42.486Z,73.30
2018-07-25T17:43:10.962Z,73.50
2018-07-25T17:45:39.392Z,74.00
2018-07-25T17:50:36.130Z,75.70
2018-07-25T17:53:04.711Z,76.00
2018-07-25T17:55:33.210Z,76.50
2018-07-25T17:58:02.095Z,76.70
2018-07-25T18:00:30.557Z,76.90
2018-07-25T18:02:59.056Z,76.60
2018-07-25T18:05:27.528Z,76.30
2018-07-25T18:07:55.988Z,76.30
2018-07-25T18:10:24.437Z,76.70
2018-07-25T18:12:58.159Z,76.80
2018-07-25T18:15:26.593Z,76.80
2018-07-25T18:17:55.085Z,76.30
2018-07-25T18:20:23.538Z,77.40
2018-07-25T18:22:52.047Z,78.50
2018-07-25T18:25:20.436Z,78.70
2018-07-25T18:27:48.870Z,79.00
2018-07-25T18:30:17.324Z,79.60
2018-07-25T18:32:45.859Z,79.60
2018-07-25T18:35:14.329Z,79.50
2018-07-25T18:37:42.796Z,78.90
2018-07-25T18:40:11.287Z,79.00
2018-07-25T18:42:40.039Z,79.20
2018-07-25T18:45:08.548Z,79.80
2018-07-25T18:47:36.975Z,79.80
2018-07-25T18:50:07.144Z,80.60
2018-07-25T18:52:35.651Z,80.60
2018-07-25T18:55:04.144Z,80.90
2018-07-25T18:57:32.616Z,81.10
2018-07-25T19:02:29.450Z,81.30
2018-07-25T19:04:57.899Z,81.30
2018-07-25T19:07:26.360Z,81.30
2018-07-25T19:09:54.779Z,81.20
2018-07-25T19:12:23.213Z,81.10
2018-07-25T19:14:56.924Z,81.20
2018-07-25T19:17:25.386Z,80.90
2018-07-25T19:19:53.777Z,80.90
2018-07-25T19:22:22.176Z,80.80
2018-07-25T19:24:50.604Z,81.00
2018-07-25T19:27:19.808Z,81.00
2018-07-25T19:29:48.240Z,81.00
2018-07-25T19:32:16.700Z,80.90
2018-07-25T19:37:13.452Z,81.00
2018-07-25T19:42:10.257Z,80.80
2018-07-25T19:44:38.765Z,80.60
2018-07-25T19:47:07.247Z,80.40
2018-07-25T19:49:36.012Z,80.20
2018-07-25T19:52:04.449Z,80.10
2018-07-25T19:54:33.182Z,80.10
2018-07-25T19:57:01.648Z,80.20
2018-07-25T19:59:30.148Z,80.30
2018-07-25T20:01:58.713Z,80.60
2018-07-25T20:04:27.116Z,81.00
2018-07-25T20:06:55.674Z,81.30
2018-07-25T20:11:54.065Z,81.60
2018-07-25T20:14:28.205Z,81.40
2018-07-25T20:16:57.016Z,81.40
2018-07-25T20:19:25.621Z,81.40
2018-07-25T20:21:54.344Z,81.30
2018-07-25T20:24:23.100Z,81.30
2018-07-25T20:26:51.664Z,81.30
2018-07-25T20:29:20.803Z,81.20
2018-07-25T20:31:49.214Z,81.20
2018-07-25T20:34:17.767Z,81.20
2018-07-25T20:36:46.235Z,81.30
2018-07-25T20:39:15.058Z,81.40
2018-07-25T20:41:43.639Z,81.30
2018-07-25T20:44:12.384Z,81.30
2018-07-25T20:49:09.224Z,81.40
2018-07-25T20:51:38.480Z,81.40
2018-07-25T20:54:07.451Z,81.50
2018-07-25T20:56:36.165Z,81.50
2018-07-25T20:59:04.808Z,81.80
2018-07-25T21:01:33.290Z,82.10
2018-07-25T21:07:00.821Z,82.00
2018-07-25T21:09:29.649Z,82.00
2018-07-25T21:11:58.099Z,82.00
2018-07-25T21:14:26.976Z,82.30
2018-07-25T21:16:55.994Z,82.10
2018-07-25T21:19:25.052Z,82.30
2018-07-25T21:21:53.926Z,82.50
2018-07-25T21:24:22.359Z,82.70
2018-07-25T21:26:50.769Z,82.80
2018-07-25T21:29:19.205Z,82.90
2018-07-25T21:31:47.592Z,82.90
2018-07-25T21:34:16.044Z,82.80
2018-07-25T21:36:44.448Z,82.70
2018-07-25T21:39:13.544Z,82.70
2018-07-25T21:41:42.311Z,82.70
2018-07-25T21:44:10.740Z,82.60
2018-07-25T21:46:39.183Z,82.50
2018-07-25T21:49:07.713Z,82.50
2018-07-25T21:51:36.189Z,82.50
2018-07-25T21:54:04.648Z,82.50
2018-07-25T21:56:33.105Z,82.40
2018-07-25T21:59:01.525Z,82.50
2018-07-25T22:01:29.953Z,82.60
2018-07-25T22:03:58.373Z,82.70
2018-07-25T22:06:26.793Z,82.70
2018-07-25T22:08:55.393Z,82.70
2018-07-25T22:11:23.784Z,83.30
2018-07-25T22:13:56.047Z,83.40
2018-07-25T22:16:25.433Z,83.50
2018-07-25T22:18:53.856Z,84.00
2018-07-25T22:21:22.261Z,83.80
2018-07-25T22:23:50.665Z,83.80
2018-07-25T22:26:19.104Z,84.00
2018-07-25T22:28:47.640Z,84.10
2018-07-25T22:31:16.113Z,84.10
2018-07-25T22:33:44.649Z,83.80
2018-07-25T22:36:13.086Z,84.10
2018-07-25T22:38:41.482Z,84.00
2018-07-25T22:41:09.949Z,84.10
2018-07-25T22:43:38.369Z,84.10
2018-07-25T22:46:06.826Z,84.10
2018-07-25T22:48:35.271Z,84.20
2018-07-25T22:51:03.685Z,84.30
2018-07-25T22:53:32.185Z,84.30
2018-07-25T22:56:00.648Z,84.20
2018-07-25T22:58:29.056Z,84.30
2018-07-25T23:00:57.729Z,84.30
2018-07-25T23:03:26.365Z,84.50
2018-07-25T23:05:54.873Z,84.30
2018-07-25T23:08:23.420Z,84.50
2018-07-25T23:10:51.869Z,84.50
2018-07-25T23:13:20.273Z,84.50
2018-07-25T23:15:48.700Z,84.50
2018-07-25T23:18:17.156Z,84.70
2018-07-25T23:20:45.551Z,84.80
2018-07-25T23:23:13.976Z,84.80
2018-07-25T23:25:42.384Z,84.90
2018-07-25T23:30:38.947Z,84.60
2018-07-25T23:33:07.440Z,84.50
2018-07-25T23:35:36.700Z,84.70
2018-07-25T23:38:05.128Z,85.20
2018-07-25T23:40:33.587Z,85.30
2018-07-25T23:43:02.060Z,85.30
2018-07-25T23:47:58.631Z,85.60
2018-07-25T23:50:27.213Z,85.50
2018-07-25T23:52:55.637Z,85.50
2018-07-25T23:55:24.036Z,85.50
2018-07-25T23:57:52.693Z,85.50
